createdAt,value
2023-01-08T00:01:19.097Z,100005.88
2023-01-08T00:03:45.593Z,100007.75
2023-01-08T00:06:12.869Z,100002.97
2023-01-08T00:08:39.224Z,100005.47
2023-01-08T00:11:05.769Z,99998.16
2023-01-08T00:13:32.198Z,99994.84
2023-01-08T00:16:02.432Z,99999.41
2023-01-08T00:18:29.107Z,99987.78
2023-01-08T00:20:55.411Z,99986.94
2023-01-08T00:23:22.882Z,99982.97
2023-01-08T00:25:49.293Z,99980.25
2023-01-08T00:28:15.632Z,99974.44
2023-01-08T00:30:42.366Z,99943.44
2023-01-08T00:33:09.520Z,99977.97
2023-01-08T00:35:37.433Z,99970.06
2023-01-08T00:38:03.868Z,99969.22
2023-01-08T00:40:30.189Z,99972.78
2023-01-08T00:42:56.616Z,99967.56
2023-01-08T00:45:22.951Z,99968.38
2023-01-08T00:47:49.307Z,99970.25
2023-01-08T00:50:18.657Z,99965.88
2023-01-08T00:52:45.095Z,99961.09
2023-01-08T00:55:11.458Z,99963.19
2023-01-08T00:57:39.161Z,99957.56
2023-01-08T01:00:08.139Z,99951.94
2023-01-08T01:02:35.300Z,99956.94
2023-01-08T01:05:01.853Z,99948.81
2023-01-08T01:07:28.233Z,99949.63
2023-01-08T01:09:54.589Z,99953.59
2023-01-08T01:12:20.988Z,99956.09
2023-01-08T01:14:47.303Z,99959.66
2023-01-08T01:17:13.792Z,99966.53
2023-01-08T01:19:40.810Z,99961.50
2023-01-08T01:22:07.209Z,99943.41
2023-01-08T01:24:33.720Z,99929.66
2023-01-08T01:27:00.152Z,99942.34
2023-01-08T01:29:26.579Z,99942.75
2023-01-08T01:31:52.958Z,99945.69
2023-01-08T01:34:19.407Z,99948.19
2023-01-08T01:36:45.773Z,99946.91
2023-01-08T01:39:12.089Z,99951.09
2023-01-08T01:41:43.210Z,99950.03
2023-01-08T01:44:28.609Z,99950.25
2023-01-08T01:46:54.998Z,99952.75
2023-01-08T01:49:22.862Z,99946.91
2023-01-08T01:51:50.921Z,99932.97
2023-01-08T01:54:17.857Z,99940.66
2023-01-08T01:56:44.270Z,99943.38
2023-01-08T01:59:11.427Z,99936.91
2023-01-08T02:01:38.351Z,99932.13
2023-01-08T02:04:05.660Z,99925.66
2023-01-08T02:06:35.720Z,99922.31
2023-01-08T02:09:03.107Z,99924.41
2023-01-08T02:11:39.182Z,99924.41
2023-01-08T02:14:16.282Z,99913.19
2023-01-08T02:16:50.410Z,99913.19
2023-01-08T02:19:23.562Z,99906.09
2023-01-08T02:21:49.926Z,99897.59
2023-01-08T02:24:23.697Z,99857.47
2023-01-08T02:26:53.003Z,99885.53
2023-01-08T02:29:22.025Z,99882.19
2023-01-08T02:31:48.421Z,99879.06
2023-01-08T02:34:14.741Z,99873.44
2023-01-08T02:36:42.000Z,99862.63
2023-01-08T02:39:11.447Z,99854.50
2023-01-08T02:41:47.792Z,99867.84
2023-01-08T02:44:19.609Z,99863.25
2023-01-08T02:46:46.729Z,99855.16
2023-01-08T02:49:13.843Z,99844.09
2023-01-08T02:51:47.303Z,99833.28
2023-01-08T02:54:16.682Z,99834.53
2023-01-08T02:56:46.200Z,99839.53
2023-01-08T02:59:14.439Z,99840.38
2023-01-08T03:01:41.288Z,99837.06
2023-01-08T03:04:11.665Z,99836.66
2023-01-08T03:06:38.343Z,99839.34
2023-01-08T03:09:06.146Z,99840.38
2023-01-08T03:11:37.171Z,99833.09
2023-01-08T03:14:20.118Z,99836.22
2023-01-08T03:16:52.462Z,99833.75
2023-01-08T03:19:26.003Z,99836.22
2023-01-08T03:21:53.290Z,99839.53
2023-01-08T03:24:25.343Z,99841.22
2023-01-08T03:26:53.546Z,99837.06
2023-01-08T03:29:21.337Z,99839.78
2023-01-08T03:31:48.265Z,99836.25
2023-01-08T03:34:15.846Z,99834.16
2023-01-08T03:36:46.543Z,99828.53
2023-01-08T03:39:33.161Z,99837.91
2023-01-08T03:42:02.587Z,99833.34
2023-01-08T03:44:28.928Z,99830.44
2023-01-08T03:46:56.525Z,99840.81
2023-01-08T03:49:24.607Z,99835.81
2023-01-08T03:51:50.999Z,99838.72
2023-01-08T03:54:22.219Z,99826.84
2023-01-08T03:56:48.653Z,99822.91
2023-01-08T03:59:15.602Z,99822.91
2023-01-08T04:01:42.328Z,99818.53
2023-01-08T04:04:10.065Z,99809.78
2023-01-08T04:06:36.409Z,99818.31
2023-01-08T04:09:03.011Z,99817.88
2023-01-08T04:11:29.397Z,99809.34
2023-01-08T04:13:55.859Z,99806.84
2023-01-08T04:16:22.451Z,99810.63
2023-01-08T04:18:48.895Z,99799.38
2023-01-08T04:21:15.278Z,99793.75
2023-01-08T04:23:41.606Z,99786.47
2023-01-08T04:26:08.353Z,99792.94
2023-01-08T04:28:35.036Z,99782.31
2023-01-08T04:31:05.333Z,99784.19
2023-01-08T04:33:31.849Z,99782.91
2023-01-08T04:35:58.167Z,99784.81
2023-01-08T04:38:24.609Z,99790.22
2023-01-08T04:40:55.755Z,99784.59
2023-01-08T04:43:22.148Z,99791.25
2023-01-08T04:45:48.479Z,99784.19
2023-01-08T04:48:14.856Z,99792.94
2023-01-08T04:50:41.246Z,99796.66
2023-01-08T04:53:07.707Z,99793.56
2023-01-08T04:55:34.166Z,99788.75
2023-01-08T04:58:00.709Z,99785.41
2023-01-08T05:00:27.072Z,99783.75
2023-01-08T05:02:53.566Z,99786.25
2023-01-08T05:05:20.019Z,99781.25
2023-01-08T05:07:46.381Z,99783.75
2023-01-08T05:10:12.752Z,99777.28
2023-01-08T05:12:39.173Z,99755.66
2023-01-08T05:15:05.726Z,99755.06
2023-01-08T05:17:32.154Z,99754.63
2023-01-08T05:19:58.463Z,99747.94
2023-01-08T05:22:24.755Z,99749.44
2023-01-08T05:24:51.125Z,99749.66
2023-01-08T05:27:17.667Z,99744.22
2023-01-08T05:29:44.069Z,99752.56
2023-01-08T05:32:15.332Z,99756.31
2023-01-08T05:34:41.835Z,99760.69
2023-01-08T05:37:08.207Z,99770.91
2023-01-08T05:39:34.614Z,99762.16
2023-01-08T05:42:01.357Z,99774.63
2023-01-08T05:44:27.741Z,99757.16
2023-01-08T05:46:54.528Z,99776.72
2023-01-08T05:49:22.020Z,99768.41
2023-01-08T05:51:48.350Z,99763.84
2023-01-08T05:54:14.694Z,99766.34
2023-01-08T05:56:43.802Z,99761.72
2023-01-08T05:59:13.112Z,99752.81
2023-01-08T06:01:40.032Z,99750.91
2023-01-08T06:04:06.450Z,99755.94
2023-01-08T06:06:32.860Z,99753.44
2023-01-08T06:08:59.250Z,99753.03
2023-01-08T06:11:25.626Z,99762.59
2023-01-08T06:13:52.064Z,99765.09
2023-01-08T06:16:18.571Z,99756.34
2023-01-08T06:18:45.021Z,99760.13
2023-01-08T06:21:13.187Z,99758.84
2023-01-08T06:23:39.968Z,99745.53
2023-01-08T06:26:06.771Z,99741.78
2023-01-08T06:28:33.117Z,99749.94
2023-01-08T06:31:00.493Z,99738.47
2023-01-08T06:33:27.120Z,99748.50
2023-01-08T06:35:53.555Z,99753.47
2023-01-08T06:38:19.962Z,99757.19
2023-01-08T06:40:46.864Z,99763.03
2023-01-08T06:43:13.258Z,99763.44
2023-01-08T06:45:39.731Z,99763.63
2023-01-08T06:48:06.966Z,99768.66
2023-01-08T06:50:34.253Z,99777.19
2023-01-08T06:53:00.982Z,99768.03
2023-01-08T06:55:27.689Z,99772.00
2023-01-08T06:57:54.862Z,99778.84
2023-01-08T07:00:23.577Z,99773.84
2023-01-08T07:02:50.584Z,99780.09
2023-01-08T07:05:17.332Z,99792.19
2023-01-08T07:07:43.792Z,99792.19
2023-01-08T07:10:10.309Z,99784.66
2023-01-08T07:12:36.751Z,99784.28
2023-01-08T07:15:03.557Z,99785.09
2023-01-08T07:17:31.774Z,99780.72
2023-01-08T07:19:58.109Z,99799.44
2023-01-08T07:22:25.939Z,99803.16
2023-01-08T07:24:52.754Z,99814.22
2023-01-08T07:27:19.293Z,99809.41
2023-01-08T07:29:45.670Z,99817.31
2023-01-08T07:32:12.048Z,99814.41
2023-01-08T07:34:38.398Z,99819.41
2023-01-08T07:37:04.777Z,99817.13
2023-01-08T07:39:31.793Z,99821.50
2023-01-08T07:41:58.164Z,99822.53
2023-01-08T07:44:24.685Z,99819.19
2023-01-08T07:46:51.080Z,99808.19
2023-01-08T07:49:17.450Z,99807.97
2023-01-08T07:51:43.763Z,99815.69
2023-01-08T07:54:10.225Z,99809.22
2023-01-08T07:56:36.630Z,99806.94
2023-01-08T07:59:03.018Z,99804.63
2023-01-08T08:01:29.490Z,99805.47
2023-01-08T08:03:55.901Z,99802.78
2023-01-08T08:06:22.293Z,99801.72
2023-01-08T08:08:48.761Z,99798.41
2023-01-08T08:11:15.139Z,99803.41
2023-01-08T08:13:44.716Z,99800.28
2023-01-08T08:16:11.528Z,99805.69
2023-01-08T08:18:38.037Z,99810.47
2023-01-08T08:21:04.655Z,99805.47
2023-01-08T08:23:32.334Z,99796.97
2023-01-08T08:25:58.781Z,99795.06
2023-01-08T08:28:25.187Z,99795.50
2023-01-08T08:30:51.915Z,99803.00
2023-01-08T08:33:18.347Z,99765.56
2023-01-08T08:35:48.975Z,99790.09
2023-01-08T08:38:15.425Z,99791.75
2023-01-08T08:40:42.466Z,99789.25
2023-01-08T08:43:09.849Z,99771.59
2023-01-08T08:45:36.379Z,99775.72
2023-01-08T08:48:04.909Z,99777.41
2023-01-08T08:50:31.253Z,99771.78
2023-01-08T08:53:01.403Z,99779.72
2023-01-08T08:55:28.161Z,99769.31
2023-01-08T08:57:54.527Z,99770.53
2023-01-08T09:00:20.921Z,99769.28
2023-01-08T09:02:49.526Z,99768.44
2023-01-08T09:05:16.041Z,99768.25
2023-01-08T09:07:42.409Z,99766.59
2023-01-08T09:10:08.872Z,99754.09
2023-01-08T09:12:35.289Z,99753.88
2023-01-08T09:15:01.579Z,99757.19
2023-01-08T09:17:28.003Z,99759.69
2023-01-08T09:19:54.405Z,99752.84
2023-01-08T09:22:20.833Z,99747.22
2023-01-08T09:24:47.364Z,99743.91
2023-01-08T09:27:14.057Z,99749.34
2023-01-08T09:29:40.394Z,99754.13
2023-01-08T09:32:07.242Z,99750.78
2023-01-08T09:34:36.005Z,99753.47
2023-01-08T09:37:02.592Z,99754.75
2023-01-08T09:39:28.955Z,99743.53
2023-01-08T09:41:56.357Z,99747.69
2023-01-08T09:44:26.435Z,99750.41
2023-01-08T09:46:54.858Z,99751.00
2023-01-08T09:49:26.486Z,99746.41
2023-01-08T09:51:52.914Z,99751.63
2023-01-08T09:54:19.993Z,99749.09
2023-01-08T09:56:46.495Z,99753.06
2023-01-08T09:59:16.609Z,99747.66
2023-01-08T10:01:45.251Z,99743.88
2023-01-08T10:04:14.766Z,99743.84
2023-01-08T10:06:44.564Z,99731.75
2023-01-08T10:09:14.335Z,99735.91
2023-01-08T10:11:43.009Z,99734.25
2023-01-08T10:14:48.041Z,99722.38
2023-01-08T10:17:25.683Z,99727.38
2023-01-08T10:19:52.176Z,99709.19
2023-01-08T10:22:19.831Z,99703.53
2023-01-08T10:24:46.281Z,99697.03
2023-01-08T10:27:14.891Z,99693.91
2023-01-08T10:29:41.358Z,99686.22
2023-01-08T10:32:09.935Z,99689.94
2023-01-08T10:34:44.976Z,99683.38
2023-01-08T10:37:16.492Z,99683.38
2023-01-08T10:39:45.903Z,99685.88
2023-01-08T10:42:12.987Z,99674.19
2023-01-08T10:44:39.439Z,99679.38
2023-01-08T10:47:06.224Z,99666.19
2023-01-08T10:49:39.131Z,99667.25
2023-01-08T10:52:05.770Z,99662.44
2023-01-08T10:54:33.913Z,99654.94
2023-01-08T10:57:02.466Z,99654.06
2023-01-08T10:59:29.448Z,99648.22
2023-01-08T11:01:57.607Z,99643.25
2023-01-08T11:04:29.095Z,99639.47
2023-01-08T11:06:59.859Z,99635.25
2023-01-08T11:09:31.079Z,99637.31
2023-01-08T11:11:57.938Z,99636.69
2023-01-08T11:14:26.785Z,99633.91
2023-01-08T11:16:53.886Z,99631.81
2023-01-08T11:19:23.493Z,99632.44
2023-01-08T11:22:02.129Z,99623.91
2023-01-08T11:24:28.719Z,99609.31
2023-01-08T11:27:01.489Z,99606.38
2023-01-08T11:29:38.677Z,99607.78
2023-01-08T11:32:23.960Z,99610.03
2023-01-08T11:34:54.252Z,99596.88
2023-01-08T11:37:22.182Z,99600.16
2023-01-08T11:39:49.142Z,99590.34
2023-01-08T11:42:34.400Z,99598.69
2023-01-08T11:45:15.152Z,99580.78
2023-01-08T11:47:51.532Z,99573.72
2023-01-08T11:50:21.862Z,99569.09
2023-01-08T11:52:55.686Z,99564.97
2023-01-08T11:55:41.765Z,99551.88
2023-01-08T11:58:30.536Z,99560.88
2023-01-08T12:01:02.123Z,99545.06
2023-01-08T12:03:31.312Z,99550.13
2023-01-08T12:06:05.015Z,99561.78
2023-01-08T12:08:40.489Z,99556.81
2023-01-08T12:11:33.099Z,99555.94
2023-01-08T12:14:18.234Z,99549.91
2023-01-08T12:17:03.640Z,99556.38
2023-01-08T12:19:33.062Z,99546.66
2023-01-08T12:22:18.211Z,99549.59
2023-01-08T12:24:44.677Z,99545.16
2023-01-08T12:27:11.066Z,99549.59
2023-01-08T12:29:54.471Z,99551.66
2023-01-08T12:32:23.191Z,99542.75
2023-01-08T12:34:57.826Z,99541.31
2023-01-08T12:37:27.291Z,99534.44
2023-01-08T12:39:56.721Z,99538.34
2023-01-08T12:42:28.070Z,99537.03
2023-01-08T12:44:56.786Z,99533.59
2023-01-08T12:47:25.601Z,99536.94
2023-01-08T12:50:12.224Z,99538.97
2023-01-08T12:52:57.453Z,99537.09
2023-01-08T12:55:27.314Z,99536.94
2023-01-08T12:58:12.245Z,99534.44
2023-01-08T13:00:46.176Z,99533.84
2023-01-08T13:03:15.236Z,99539.72
2023-01-08T13:05:43.479Z,99532.91
2023-01-08T13:08:27.405Z,99529.25
2023-01-08T13:10:54.787Z,99528.47
2023-01-08T13:13:24.125Z,99519.34
2023-01-08T13:15:50.588Z,99519.75
2023-01-08T13:18:18.713Z,99518.47
2023-01-08T13:20:55.860Z,99509.16
2023-01-08T13:23:25.621Z,99499.56
2023-01-08T13:25:53.303Z,99498.59
2023-01-08T13:28:28.163Z,99500.69
2023-01-08T13:30:55.800Z,99489.03
2023-01-08T13:33:41.665Z,99474.94
2023-01-08T13:36:23.571Z,99492.72
2023-01-08T13:39:04.972Z,99495.44
2023-01-08T13:41:32.897Z,99481.91
2023-01-08T13:44:07.005Z,99484.34
2023-01-08T13:46:36.329Z,99473.91
2023-01-08T13:49:07.538Z,99474.44
2023-01-08T13:51:40.866Z,99471.91
2023-01-08T13:54:07.719Z,99469.56
2023-01-08T13:56:34.088Z,99473.56
2023-01-08T13:59:00.528Z,99467.75
2023-01-08T14:01:27.053Z,99465.25
2023-01-08T14:03:53.494Z,99458.06
2023-01-08T14:06:22.031Z,99455.94
2023-01-08T14:09:02.092Z,99455.78
2023-01-08T14:11:41.763Z,99453.75
2023-01-08T14:14:12.579Z,99451.25
2023-01-08T14:16:39.935Z,99449.00
2023-01-08T14:19:06.396Z,99442.81
2023-01-08T14:21:32.972Z,99436.78
2023-01-08T14:23:59.475Z,99432.88
2023-01-08T14:26:31.948Z,99431.66
2023-01-08T14:28:58.386Z,99429.84
2023-01-08T14:31:26.518Z,99432.50
2023-01-08T14:33:54.269Z,99431.06
2023-01-08T14:36:21.140Z,99430.78
2023-01-08T14:38:50.932Z,99427.47
2023-01-08T14:41:21.638Z,99427.88
2023-01-08T14:43:49.789Z,99422.38
2023-01-08T14:46:24.657Z,99429.91
2023-01-08T14:48:52.265Z,99418.25
2023-01-08T14:51:23.185Z,99427.44
2023-01-08T14:54:01.472Z,99425.75
2023-01-08T14:56:30.213Z,99412.88
2023-01-08T14:58:59.522Z,99406.69
2023-01-08T15:01:30.937Z,99411.09
2023-01-08T15:04:17.107Z,99416.63
2023-01-08T15:06:43.600Z,99425.75
2023-01-08T15:09:20.712Z,99419.53
2023-01-08T15:11:49.879Z,99418.69
2023-01-08T15:14:22.836Z,99410.78
2023-01-08T15:16:49.390Z,99409.59
2023-01-08T15:19:22.415Z,99414.59
2023-01-08T15:21:49.821Z,99411.97
2023-01-08T15:24:23.509Z,99410.13
2023-01-08T15:26:50.577Z,99420.56
2023-01-08T15:29:22.946Z,99419.31
2023-01-08T15:31:49.569Z,99409.28
2023-01-08T15:34:18.079Z,99402.41
2023-01-08T15:36:45.410Z,99398.25
2023-01-08T15:39:11.784Z,99405.59
2023-01-08T15:41:57.457Z,99411.06
2023-01-08T15:44:24.514Z,99405.66
2023-01-08T15:46:51.946Z,99413.19
2023-01-08T15:49:18.319Z,99409.50
2023-01-08T15:51:46.509Z,99397.50
2023-01-08T15:54:13.262Z,99403.34
2023-01-08T15:56:39.762Z,99395.72
2023-01-08T15:59:06.259Z,99393.66
2023-01-08T16:01:33.296Z,99400.56
2023-01-08T16:04:00.103Z,99395.16
2023-01-08T16:06:26.453Z,99387.28
2023-01-08T16:08:52.767Z,99387.72
2023-01-08T16:11:19.556Z,99392.75
2023-01-08T16:13:46.296Z,99384.41
2023-01-08T16:16:14.040Z,99388.34
2023-01-08T16:18:40.828Z,99375.31
2023-01-08T16:21:08.058Z,99382.78
2023-01-08T16:23:35.633Z,99386.13
2023-01-08T16:26:05.757Z,99384.28
2023-01-08T16:28:32.162Z,99378.09
2023-01-08T16:30:58.549Z,99381.59
2023-01-08T16:33:25.034Z,99371.44
2023-01-08T16:36:23.608Z,99374.41
2023-01-08T16:38:50.004Z,99374.34
2023-01-08T16:41:16.609Z,99370.44
2023-01-08T16:44:01.413Z,99380.75
2023-01-08T16:46:30.484Z,99372.38
2023-01-08T16:48:56.913Z,99361.09
2023-01-08T16:51:25.269Z,99360.88
2023-01-08T16:53:51.681Z,99359.84
2023-01-08T16:56:18.142Z,99354.88
2023-01-08T16:58:44.556Z,99341.41
2023-01-08T17:01:11.217Z,99340.00
2023-01-08T17:03:37.745Z,99335.25
2023-01-08T17:06:08.107Z,99338.38
2023-01-08T17:08:39.685Z,99339.88
2023-01-08T17:11:06.913Z,99330.13
2023-01-08T17:13:33.326Z,99318.13
2023-01-08T17:16:02.270Z,99318.75
2023-01-08T17:18:28.691Z,99286.69
2023-01-08T17:20:55.164Z,99317.31
2023-01-08T17:23:26.961Z,99313.38
2023-01-08T17:25:57.197Z,99319.38
2023-01-08T17:28:28.439Z,99316.25
2023-01-08T17:31:01.425Z,99327.06
2023-01-08T17:33:27.803Z,99320.66
2023-01-08T17:35:54.156Z,99309.88
2023-01-08T17:38:20.514Z,99320.72
2023-01-08T17:40:49.913Z,99321.94
2023-01-08T17:43:16.270Z,99313.78
2023-01-08T17:45:42.632Z,99307.75
2023-01-08T17:48:09.054Z,99303.97
2023-01-08T17:50:35.450Z,99302.31
2023-01-08T17:53:01.891Z,99300.06
2023-01-08T17:55:28.340Z,99295.69
2023-01-08T17:57:54.718Z,99290.75
2023-01-08T18:00:21.281Z,99294.47
2023-01-08T18:02:47.755Z,99294.47
2023-01-08T18:05:14.224Z,99286.56
2023-01-08T18:07:40.600Z,99289.47
2023-01-08T18:10:07.437Z,99271.22
2023-01-08T18:12:33.827Z,99272.88
2023-01-08T18:15:00.355Z,99269.56
2023-01-08T18:17:26.942Z,99265.81
2023-01-08T18:19:53.280Z,99263.13
2023-01-08T18:22:19.598Z,99256.72
2023-01-08T18:24:46.006Z,99259.78
2023-01-08T18:27:12.370Z,99259.19
2023-01-08T18:29:38.765Z,99251.69
2023-01-08T18:32:05.331Z,99252.31
2023-01-08T18:34:31.776Z,99250.06
2023-01-08T18:36:58.200Z,99250.06
2023-01-08T18:39:26.598Z,99256.28
2023-01-08T18:42:11.685Z,99253.81
2023-01-08T18:44:38.088Z,99252.13
2023-01-08T18:47:04.549Z,99246.72
2023-01-08T18:49:30.976Z,99240.94
2023-01-08T18:51:57.375Z,99241.94
2023-01-08T18:54:23.956Z,99243.22
2023-01-08T18:56:51.159Z,99236.59
2023-01-08T18:59:17.715Z,99228.03
2023-01-08T19:01:44.194Z,99224.75
2023-01-08T19:04:15.161Z,99228.09
2023-01-08T19:06:41.567Z,99222.91
2023-01-08T19:09:07.927Z,99218.09
2023-01-08T19:11:34.348Z,99211.41
2023-01-08T19:14:00.843Z,99203.94
2023-01-08T19:16:27.353Z,99199.75
2023-01-08T19:18:53.959Z,99196.28
2023-01-08T19:21:20.521Z,99195.66
2023-01-08T19:23:47.082Z,99190.50
2023-01-08T19:26:14.560Z,99184.91
2023-01-08T19:28:41.407Z,99184.84
2023-01-08T19:31:12.021Z,99171.13
2023-01-08T19:33:38.453Z,99168.00
2023-01-08T19:36:12.390Z,99171.13
2023-01-08T19:38:39.770Z,99162.06
2023-01-08T19:41:26.771Z,99139.25
2023-01-08T19:43:56.614Z,99140.97
2023-01-08T19:46:23.326Z,99134.78
2023-01-08T19:48:49.675Z,99141.03
2023-01-08T19:51:16.045Z,99138.97
2023-01-08T19:53:42.547Z,99127.78
2023-01-08T19:56:10.420Z,99124.69
2023-01-08T19:58:36.874Z,99120.31
2023-01-08T20:01:14.259Z,99116.19
2023-01-08T20:03:41.147Z,99106.47
2023-01-08T20:06:12.579Z,99104.13
2023-01-08T20:08:38.981Z,99106.84
2023-01-08T20:11:06.474Z,99112.44
2023-01-08T20:13:35.919Z,99102.28
2023-01-08T20:16:06.590Z,99099.38
2023-01-08T20:18:33.930Z,99092.53
2023-01-08T20:21:07.788Z,99098.75
2023-01-08T20:23:36.389Z,99097.09
2023-01-08T20:26:05.680Z,99091.47
2023-01-08T20:28:35.678Z,99086.69
2023-01-08T20:31:06.053Z,99076.50
2023-01-08T20:33:32.456Z,99083.75
2023-01-08T20:35:58.924Z,99076.72
2023-01-08T20:38:25.260Z,99078.38
2023-01-08T20:40:51.629Z,99074.03
2023-01-08T20:43:18.026Z,99069.25
2023-01-08T20:45:47.181Z,99072.53
2023-01-08T20:48:13.794Z,99068.81
2023-01-08T20:50:44.627Z,99073.78
2023-01-08T20:53:11.050Z,99058.03
2023-01-08T20:55:37.550Z,99051.72
2023-01-08T20:58:03.951Z,99048.56
2023-01-08T21:00:30.324Z,99043.34
2023-01-08T21:02:57.250Z,99044.78
2023-01-08T21:05:24.737Z,99040.81
2023-01-08T21:07:51.095Z,99028.28
2023-01-08T21:10:17.415Z,99038.66
2023-01-08T21:12:43.888Z,99036.97
2023-01-08T21:15:11.652Z,99034.00
2023-01-08T21:17:38.209Z,99031.09
2023-01-08T21:20:05.515Z,99021.56
2023-01-08T21:22:31.902Z,99025.31
2023-01-08T21:24:58.297Z,99015.09
2023-01-08T21:27:25.167Z,99012.19
2023-01-08T21:29:52.329Z,99006.56
2023-01-08T21:32:18.774Z,99006.94
2023-01-08T21:34:45.820Z,98999.91
2023-01-08T21:37:15.151Z,98995.72
2023-01-08T21:39:41.814Z,98982.22
2023-01-08T21:42:27.691Z,98972.47
2023-01-08T21:45:12.612Z,98973.03
2023-01-08T21:47:38.968Z,98964.94
2023-01-08T21:50:05.948Z,98963.31
2023-01-08T21:52:51.065Z,98962.91
2023-01-08T21:55:17.449Z,98954.16
2023-01-08T21:57:44.503Z,98947.47
2023-01-08T22:00:12.035Z,98951.16
2023-01-08T22:02:38.513Z,98937.78
2023-01-08T22:05:05.383Z,98938.97
2023-01-08T22:07:32.054Z,98930.19
2023-01-08T22:10:00.411Z,98929.34
2023-01-08T22:12:27.541Z,98922.31
2023-01-08T22:14:54.806Z,98919.03
2023-01-08T22:17:21.563Z,98915.94
2023-01-08T22:19:47.905Z,98913.03
2023-01-08T22:22:14.265Z,98904.09
2023-01-08T22:24:41.257Z,98907.41
2023-01-08T22:27:08.628Z,98905.97
2023-01-08T22:29:35.304Z,98897.72
2023-01-08T22:32:01.773Z,98914.16
2023-01-08T22:34:31.783Z,98912.88
2023-01-08T22:36:58.190Z,98907.00
2023-01-08T22:39:24.675Z,98902.91
2023-01-08T22:41:51.464Z,98904.19
2023-01-08T22:44:17.959Z,98901.94
2023-01-08T22:46:44.316Z,98901.56
2023-01-08T22:49:11.640Z,98909.59
2023-01-08T22:51:38.483Z,98915.44
2023-01-08T22:54:04.923Z,98911.69
2023-01-08T22:56:31.277Z,98916.28
2023-01-08T22:58:57.773Z,98917.19
2023-01-08T23:01:25.225Z,98914.31
2023-01-08T23:03:52.738Z,98916.00
2023-01-08T23:06:20.086Z,98929.09
2023-01-08T23:08:46.582Z,98921.91
2023-01-08T23:11:13.824Z,98925.34
2023-01-08T23:13:40.686Z,98926.19
2023-01-08T23:16:08.829Z,98923.72
2023-01-08T23:18:35.935Z,98930.38
2023-01-08T23:21:06.257Z,98929.78
2023-01-08T23:23:32.742Z,98928.06
2023-01-08T23:26:10.472Z,98929.38
2023-01-08T23:28:37.245Z,98941.38
2023-01-08T23:31:07.802Z,98938.06
2023-01-08T23:33:34.178Z,98941.06
2023-01-08T23:38:41.060Z,98939.88
2023-01-08T23:41:07.430Z,98951.97
2023-01-08T23:43:33.850Z,98943.69
2023-01-08T23:46:03.856Z,98937.25
2023-01-08T23:48:30.412Z,98941.66
2023-01-08T23:50:57.173Z,98932.59
2023-01-08T23:53:23.506Z,98938.63
2023-01-08T23:55:49.845Z,98931.00
2023-01-08T23:58:16.589Z,98937.81
